createdAt,value
2022-08-20T00:02:10.371Z,31.03
2022-08-20T00:04:39.448Z,30.16
2022-08-20T00:07:06.922Z,27.50
2022-08-20T00:09:36.474Z,30.92
2022-08-20T00:12:07.502Z,30.01
2022-08-20T00:14:35.330Z,31.06
2022-08-20T00:17:03.069Z,31.07
2022-08-20T00:19:29.929Z,30.49
2022-08-20T00:21:58.543Z,30.49
2022-08-20T00:24:26.225Z,30.22
2022-08-20T00:26:53.330Z,31.58
2022-08-20T00:29:20.737Z,29.29
2022-08-20T00:31:50.537Z,30.46
2022-08-20T00:34:17.610Z,31.56
2022-08-20T00:36:44.643Z,30.04
2022-08-20T00:39:11.372Z,30.91
2022-08-20T00:41:38.537Z,31.01
2022-08-20T00:44:18.669Z,30.13
2022-08-20T00:46:46.517Z,28.47
2022-08-20T00:49:20.193Z,30.11
2022-08-20T00:51:53.038Z,32.20
2022-08-20T00:54:29.761Z,31.83
2022-08-20T00:57:08.691Z,27.65
2022-08-20T00:59:40.036Z,30.91
2022-08-20T01:02:11.716Z,29.43
2022-08-20T01:04:39.131Z,31.70
2022-08-20T01:07:07.550Z,28.37
2022-08-20T01:09:57.615Z,29.06
2022-08-20T01:12:25.219Z,30.51
2022-08-20T01:14:52.136Z,31.19
2022-08-20T01:17:23.766Z,29.12
2022-08-20T01:19:59.398Z,30.04
2022-08-20T01:23:04.847Z,32.44
2022-08-20T01:25:37.814Z,28.34
2022-08-20T01:28:05.279Z,29.64
2022-08-20T01:30:33.915Z,28.37
2022-08-20T01:33:02.347Z,30.23
2022-08-20T01:35:29.461Z,29.37
2022-08-20T01:37:56.487Z,29.70
2022-08-20T01:40:48.331Z,29.13
2022-08-20T01:43:15.884Z,29.24
2022-08-20T01:45:44.946Z,29.24
2022-08-20T01:48:15.635Z,28.42
2022-08-20T01:50:49.802Z,30.49
2022-08-20T01:53:30.399Z,30.41
2022-08-20T01:55:57.175Z,28.86
2022-08-20T01:58:23.950Z,28.19
2022-08-20T02:00:50.987Z,31.81
2022-08-20T02:03:17.730Z,30.62
2022-08-20T02:05:45.201Z,30.28
2022-08-20T02:08:12.019Z,30.83
2022-08-20T02:10:38.821Z,30.67
2022-08-20T02:13:05.953Z,29.16
2022-08-20T02:15:37.194Z,27.54
2022-08-20T02:18:10.528Z,29.82
2022-08-20T02:20:39.319Z,31.08
2022-08-20T02:23:09.978Z,28.81
2022-08-20T02:25:40.306Z,30.55
2022-08-20T02:28:10.650Z,28.88
2022-08-20T02:30:42.281Z,30.41
2022-08-20T02:33:12.159Z,29.97
2022-08-20T02:35:41.207Z,28.89
2022-08-20T02:38:08.311Z,29.78
2022-08-20T02:40:36.058Z,28.65
2022-08-20T02:43:04.566Z,29.37
2022-08-20T02:45:42.799Z,28.26
2022-08-20T02:48:20.914Z,27.69
2022-08-20T02:50:53.295Z,27.24
2022-08-20T02:53:20.474Z,30.33
2022-08-20T02:55:47.403Z,30.26
2022-08-20T02:58:15.041Z,28.35
2022-08-20T03:00:42.122Z,26.67
2022-08-20T03:03:11.046Z,27.27
2022-08-20T03:05:40.331Z,30.21
2022-08-20T03:08:10.014Z,27.71
2022-08-20T03:10:38.405Z,30.12
2022-08-20T03:13:05.961Z,29.24
2022-08-20T03:15:34.170Z,30.36
2022-08-20T03:18:01.463Z,27.59
2022-08-20T03:20:29.463Z,30.16
2022-08-20T03:22:57.462Z,28.33
2022-08-20T03:25:24.928Z,30.32
2022-08-20T03:27:54.805Z,29.93
2022-08-20T03:30:23.811Z,26.56
2022-08-20T03:32:50.745Z,28.68
2022-08-20T03:35:19.234Z,28.84
2022-08-20T03:37:48.438Z,27.70
2022-08-20T03:40:24.177Z,29.27
2022-08-20T03:42:52.694Z,27.05
2022-08-20T03:45:21.248Z,29.41
2022-08-20T03:47:49.307Z,27.89
2022-08-20T03:50:23.022Z,28.24
2022-08-20T03:52:51.145Z,30.70
2022-08-20T03:55:18.083Z,29.42
2022-08-20T03:57:50.606Z,28.49
2022-08-20T04:00:25.338Z,29.22
2022-08-20T04:02:52.098Z,27.08
2022-08-20T04:05:19.091Z,26.30
2022-08-20T04:07:45.890Z,28.26
2022-08-20T04:10:13.175Z,27.18
2022-08-20T04:12:41.997Z,25.90
2022-08-20T04:15:19.459Z,29.14
2022-08-20T04:17:50.194Z,27.01
2022-08-20T04:20:23.072Z,26.61
2022-08-20T04:22:59.458Z,27.06
2022-08-20T04:25:29.602Z,29.09
2022-08-20T04:28:00.923Z,26.14
2022-08-20T04:30:28.306Z,29.39
2022-08-20T04:32:56.271Z,28.32
2022-08-20T04:35:24.722Z,29.13
2022-08-20T04:38:03.512Z,27.07
2022-08-20T04:40:49.371Z,26.46
2022-08-20T04:43:16.306Z,28.55
2022-08-20T04:45:44.813Z,28.72
2022-08-20T04:48:14.918Z,31.38
2022-08-20T04:50:44.746Z,31.10
2022-08-20T04:53:13.666Z,26.92
2022-08-20T04:55:43.104Z,28.08
2022-08-20T04:58:38.065Z,28.60
2022-08-20T05:01:10.799Z,27.93
2022-08-20T05:03:39.357Z,27.58
2022-08-20T05:06:08.986Z,28.27
2022-08-20T05:08:38.438Z,29.18
2022-08-20T05:11:34.973Z,28.93
2022-08-20T05:13:53.954Z,26.59
2022-08-20T05:16:21.858Z,27.81
2022-08-20T05:18:52.158Z,30.02
2022-08-20T05:21:21.278Z,29.72
2022-08-20T05:23:49.374Z,27.04
2022-08-20T05:26:17.079Z,28.12
2022-08-20T05:28:52.772Z,25.28
2022-08-20T05:31:32.294Z,27.38
2022-08-20T05:34:10.291Z,31.31
2022-08-20T05:36:40.178Z,26.68
2022-08-20T05:39:08.884Z,27.85
2022-08-20T05:41:36.378Z,27.27
2022-08-20T05:44:04.388Z,26.70
2022-08-20T05:46:32.023Z,27.71
2022-08-20T05:49:01.623Z,29.86
2022-08-20T05:51:29.802Z,30.31
2022-08-20T05:53:59.133Z,27.97
2022-08-20T05:56:26.914Z,25.87
2022-08-20T05:58:55.318Z,27.62
2022-08-20T06:01:22.438Z,27.31
2022-08-20T06:04:07.550Z,26.40
2022-08-20T06:06:45.596Z,27.81
2022-08-20T06:09:15.734Z,27.02
2022-08-20T06:11:42.685Z,25.52
2022-08-20T06:14:10.028Z,27.41
2022-08-20T06:16:37.611Z,26.15
2022-08-20T06:19:05.431Z,27.47
2022-08-20T06:21:32.301Z,26.71
2022-08-20T06:24:01.531Z,29.19
2022-08-20T06:26:30.288Z,27.34
2022-08-20T06:29:02.407Z,25.68
2022-08-20T06:31:29.316Z,26.85
2022-08-20T06:33:56.435Z,24.36
2022-08-20T06:36:23.365Z,26.14
2022-08-20T06:38:50.183Z,25.79
2022-08-20T06:41:17.371Z,25.81
2022-08-20T06:43:44.138Z,29.87
2022-08-20T06:46:11.016Z,26.35
2022-08-20T06:48:38.214Z,26.40
2022-08-20T06:51:06.794Z,27.81
2022-08-20T06:53:33.907Z,28.17
2022-08-20T06:56:00.953Z,27.67
2022-08-20T06:58:37.159Z,28.13
2022-08-20T07:01:11.411Z,27.41
2022-08-20T07:03:55.706Z,26.79
2022-08-20T07:06:25.996Z,26.29
2022-08-20T07:08:54.142Z,26.42
2022-08-20T07:11:26.657Z,25.66
2022-08-20T07:13:56.830Z,28.87
2022-08-20T07:16:24.031Z,25.18
2022-08-20T07:18:50.813Z,25.66
2022-08-20T07:21:17.651Z,25.36
2022-08-20T07:23:44.519Z,27.96
2022-08-20T07:26:12.960Z,28.71
2022-08-20T07:28:39.827Z,27.70
2022-08-20T07:31:25.224Z,26.11
2022-08-20T07:33:53.918Z,26.10
2022-08-20T07:36:20.784Z,26.97
2022-08-20T07:38:48.257Z,25.72
2022-08-20T07:41:15.307Z,26.20
2022-08-20T07:43:45.912Z,26.99
2022-08-20T07:46:15.754Z,26.20
2022-08-20T07:48:49.724Z,25.30
2022-08-20T07:51:19.235Z,25.92
2022-08-20T07:53:47.485Z,26.09
2022-08-20T07:56:21.394Z,25.17
2022-08-20T07:58:53.320Z,25.91
2022-08-20T08:01:29.666Z,22.66
2022-08-20T08:03:57.848Z,24.21
2022-08-20T08:06:29.990Z,25.11
2022-08-20T08:09:24.082Z,25.28
2022-08-20T08:11:51.069Z,23.38
2022-08-20T08:14:26.767Z,26.03
2022-08-20T08:16:58.558Z,26.57
2022-08-20T08:19:28.745Z,27.63
2022-08-20T08:21:58.719Z,26.12
2022-08-20T08:24:28.478Z,29.34
2022-08-20T08:26:55.640Z,27.87
2022-08-20T08:29:27.631Z,26.81
2022-08-20T08:31:54.455Z,23.63
2022-08-20T08:34:22.378Z,24.58
2022-08-20T08:36:50.973Z,25.04
2022-08-20T08:39:18.797Z,25.62
2022-08-20T08:41:49.999Z,26.17
2022-08-20T08:44:27.900Z,26.31
2022-08-20T08:46:59.350Z,25.58
2022-08-20T08:49:37.863Z,27.18
2022-08-20T08:52:11.743Z,27.47
2022-08-20T08:54:45.974Z,27.63
2022-08-20T08:57:13.003Z,25.80
2022-08-20T08:59:47.420Z,26.72
2022-08-20T09:02:31.054Z,26.36
2022-08-20T09:05:01.913Z,25.69
2022-08-20T09:07:33.119Z,26.07
2022-08-20T09:10:02.430Z,28.06
2022-08-20T09:12:29.450Z,25.52
2022-08-20T09:14:56.629Z,26.07
2022-08-20T09:17:24.103Z,26.78
2022-08-20T09:19:52.364Z,24.43
2022-08-20T09:22:22.429Z,27.21
2022-08-20T09:24:50.499Z,28.60
2022-08-20T09:27:18.454Z,26.13
2022-08-20T09:29:46.183Z,26.67
2022-08-20T09:32:24.519Z,26.72
2022-08-20T09:34:59.345Z,26.41
2022-08-20T09:37:33.603Z,27.97
2022-08-20T09:40:04.999Z,27.98
2022-08-20T09:42:40.250Z,28.08
2022-08-20T09:45:10.964Z,27.46
2022-08-20T09:47:48.734Z,27.47
2022-08-20T09:50:25.127Z,28.12
2022-08-20T09:52:54.438Z,27.63
2022-08-20T09:55:24.903Z,25.77
2022-08-20T09:57:52.250Z,24.09
2022-08-20T10:00:20.172Z,26.34
2022-08-20T10:02:47.855Z,26.89
2022-08-20T10:05:14.957Z,25.90
2022-08-20T10:07:42.558Z,25.34
2022-08-20T10:10:12.210Z,25.93
2022-08-20T10:12:39.344Z,25.62
2022-08-20T10:15:06.889Z,27.10
2022-08-20T10:17:38.812Z,28.93
2022-08-20T10:20:06.815Z,27.81
2022-08-20T10:22:34.234Z,26.73
2022-08-20T10:25:01.159Z,24.15
2022-08-20T10:27:27.991Z,25.42
2022-08-20T10:29:55.072Z,26.67
2022-08-20T10:32:21.830Z,26.10
2022-08-20T10:34:49.332Z,25.86
2022-08-20T10:37:18.991Z,24.80
2022-08-20T10:39:46.325Z,24.07
2022-08-20T10:42:13.869Z,25.78
2022-08-20T10:44:40.816Z,26.71
2022-08-20T10:47:34.038Z,23.80
2022-08-20T10:50:04.289Z,22.78
2022-08-20T10:52:31.124Z,23.96
2022-08-20T10:54:58.221Z,23.80
2022-08-20T10:57:28.758Z,23.89
2022-08-20T10:59:57.417Z,24.21
2022-08-20T11:02:25.555Z,24.94
2022-08-20T11:04:53.355Z,26.17
2022-08-20T11:07:50.757Z,25.28
2022-08-20T11:10:24.007Z,25.21
2022-08-20T11:12:50.932Z,25.56
2022-08-20T11:15:18.164Z,26.66
2022-08-20T11:17:46.026Z,25.12
2022-08-20T11:20:15.360Z,23.74
2022-08-20T11:22:42.165Z,23.78
2022-08-20T11:25:09.477Z,23.05
2022-08-20T11:27:39.748Z,24.28
2022-08-20T11:30:10.389Z,26.69
2022-08-20T11:32:37.525Z,25.47
2022-08-20T11:35:19.203Z,25.29
2022-08-20T11:37:54.224Z,24.11
2022-08-20T11:40:21.895Z,24.06
2022-08-20T11:43:13.113Z,23.21
2022-08-20T11:45:37.685Z,24.36
2022-08-20T11:48:05.674Z,25.60
2022-08-20T11:50:32.577Z,25.96
2022-08-20T11:53:01.088Z,23.64
2022-08-20T11:55:30.534Z,24.75
2022-08-20T11:57:59.923Z,26.92
2022-08-20T12:00:32.801Z,25.24
2022-08-20T12:03:02.440Z,23.97
2022-08-20T12:05:32.418Z,24.12
2022-08-20T12:08:01.522Z,24.40
2022-08-20T12:10:29.816Z,25.61
2022-08-20T12:12:57.098Z,27.15
2022-08-20T12:15:26.738Z,25.44
2022-08-20T12:17:54.126Z,26.23
2022-08-20T12:20:21.147Z,23.92
2022-08-20T12:22:47.960Z,22.92
2022-08-20T12:25:15.507Z,23.49
2022-08-20T12:27:42.830Z,23.59
2022-08-20T12:30:13.307Z,23.39
2022-08-20T12:32:41.250Z,23.90
2022-08-20T12:35:09.288Z,22.80
2022-08-20T12:37:36.919Z,26.58
2022-08-20T12:40:08.198Z,26.00
2022-08-20T12:42:35.190Z,25.58
2022-08-20T12:45:01.986Z,23.00
2022-08-20T12:47:32.180Z,25.09
2022-08-20T12:50:08.086Z,22.00
2022-08-20T12:52:35.255Z,22.92
2022-08-20T12:55:04.006Z,22.58
2022-08-20T12:57:59.513Z,25.33
2022-08-20T13:00:38.519Z,25.75
2022-08-20T13:03:07.194Z,25.12
2022-08-20T13:05:35.481Z,24.24
2022-08-20T13:08:03.123Z,24.08
2022-08-20T13:10:34.059Z,24.48
2022-08-20T13:13:04.990Z,22.36
2022-08-20T13:15:32.936Z,22.39
2022-08-20T13:18:02.002Z,22.64
2022-08-20T13:20:31.743Z,25.18
2022-08-20T13:23:03.699Z,22.46
2022-08-20T13:25:31.562Z,24.80
2022-08-20T13:28:00.377Z,23.84
2022-08-20T13:30:27.740Z,22.42
2022-08-20T13:32:54.645Z,23.96
2022-08-20T13:35:21.811Z,24.28
2022-08-20T13:37:49.720Z,24.54
2022-08-20T13:40:17.428Z,23.81
2022-08-20T13:42:44.297Z,24.47
2022-08-20T13:45:11.475Z,23.63
2022-08-20T13:47:39.803Z,25.74
2022-08-20T13:50:15.517Z,24.76
2022-08-20T13:52:43.030Z,27.66
2022-08-20T13:55:11.937Z,27.29
2022-08-20T13:57:38.913Z,25.89
2022-08-20T14:00:10.675Z,24.94
2022-08-20T14:02:37.674Z,23.86
2022-08-20T14:05:04.713Z,22.69
2022-08-20T14:07:32.932Z,24.95
2022-08-20T14:10:02.915Z,24.70
2022-08-20T14:12:30.622Z,24.32
2022-08-20T14:14:57.798Z,24.47
2022-08-20T14:17:30.882Z,24.53
2022-08-20T14:20:07.090Z,24.62
2022-08-20T14:22:36.626Z,25.25
2022-08-20T14:25:08.420Z,23.59
2022-08-20T14:27:36.225Z,25.50
2022-08-20T14:30:11.944Z,24.16
2022-08-20T14:32:38.922Z,24.46
2022-08-20T14:35:06.939Z,24.52
2022-08-20T14:37:38.170Z,24.36
2022-08-20T14:40:09.286Z,24.97
2022-08-20T14:42:36.748Z,24.72
2022-08-20T14:45:06.551Z,25.82
2022-08-20T14:47:36.498Z,24.02
2022-08-20T14:50:10.375Z,25.61
2022-08-20T14:52:38.007Z,27.93
2022-08-20T14:55:07.862Z,27.62
2022-08-20T14:57:35.128Z,27.61
2022-08-20T15:00:02.156Z,27.74
2022-08-20T15:02:29.198Z,27.84
2022-08-20T15:04:56.123Z,28.76
2022-08-20T15:07:29.471Z,28.25
2022-08-20T15:09:57.576Z,26.14
2022-08-20T15:12:24.844Z,25.47
2022-08-20T15:14:51.631Z,26.79
2022-08-20T15:17:24.074Z,26.17
2022-08-20T15:19:51.449Z,24.72
2022-08-20T15:22:19.424Z,24.61
2022-08-20T15:24:46.375Z,24.35
2022-08-20T15:27:22.612Z,23.60
2022-08-20T15:29:51.537Z,24.02
2022-08-20T15:32:19.791Z,25.76
2022-08-20T15:34:47.673Z,23.67
2022-08-20T15:37:17.942Z,24.62
2022-08-20T15:39:45.497Z,24.56
2022-08-20T15:42:13.229Z,24.69
2022-08-20T15:44:41.494Z,28.27
2022-08-20T15:47:14.316Z,28.05
2022-08-20T15:49:41.840Z,27.39
2022-08-20T15:52:08.934Z,29.11
2022-08-20T15:54:36.620Z,27.00
2022-08-20T15:57:12.017Z,30.82
2022-08-20T15:59:57.203Z,28.04
2022-08-20T16:03:01.215Z,30.35
2022-08-20T16:05:37.059Z,30.32
2022-08-20T16:08:21.987Z,29.57
2022-08-20T16:11:04.002Z,30.14
2022-08-20T16:13:46.127Z,26.73
2022-08-20T16:16:43.401Z,28.08
2022-08-20T16:19:18.472Z,27.28
2022-08-20T16:21:48.095Z,26.40
2022-08-20T16:24:15.818Z,28.70
2022-08-20T16:27:07.359Z,26.85
2022-08-20T16:29:45.679Z,25.74
2022-08-20T16:32:31.037Z,26.10
2022-08-20T16:35:07.877Z,26.84
2022-08-20T16:37:41.440Z,26.79
2022-08-20T16:40:35.339Z,26.01
2022-08-20T16:43:08.442Z,24.09
2022-08-20T16:45:50.122Z,26.62
2022-08-20T16:48:18.683Z,24.80
2022-08-20T16:51:15.944Z,26.02
2022-08-20T16:53:43.052Z,24.53
2022-08-20T16:56:09.823Z,25.21
2022-08-20T16:58:36.582Z,24.81
2022-08-20T17:01:06.233Z,24.35
2022-08-20T17:03:39.834Z,23.83
2022-08-20T17:06:21.689Z,23.39
2022-08-20T17:08:51.344Z,24.22
2022-08-20T17:11:33.833Z,25.13
2022-08-20T17:14:19.659Z,24.53
2022-08-20T17:16:49.775Z,24.32
2022-08-20T17:19:28.761Z,23.96
2022-08-20T17:22:07.523Z,24.36
2022-08-20T17:24:35.338Z,24.78
2022-08-20T17:27:10.401Z,24.20
2022-08-20T17:29:53.106Z,24.41
2022-08-20T17:32:26.960Z,24.92
2022-08-20T17:34:58.018Z,24.47
2022-08-20T17:37:33.376Z,24.52
2022-08-20T17:40:09.446Z,23.87
2022-08-20T17:42:48.379Z,24.84
2022-08-20T17:45:24.250Z,24.95
2022-08-20T17:47:52.926Z,24.39
2022-08-20T17:50:24.754Z,24.40
2022-08-20T17:52:56.341Z,25.40
2022-08-20T17:55:23.588Z,25.01
2022-08-20T17:57:56.309Z,25.98
2022-08-20T18:00:28.496Z,24.65
2022-08-20T18:03:00.824Z,24.72
2022-08-20T18:05:32.456Z,25.67
2022-08-20T18:08:08.643Z,25.63
2022-08-20T18:10:47.502Z,25.82
2022-08-20T18:13:23.990Z,27.23
2022-08-20T18:15:57.061Z,27.11
2022-08-20T18:18:56.410Z,27.61
2022-08-20T18:21:50.400Z,25.49
2022-08-20T18:24:29.931Z,25.33
2022-08-20T18:27:02.469Z,26.96
2022-08-20T18:29:37.322Z,27.58
2022-08-20T18:32:35.503Z,27.45
2022-08-20T18:35:18.972Z,26.52
2022-08-20T18:37:45.955Z,25.49
2022-08-20T18:40:29.341Z,26.11
2022-08-20T18:42:59.396Z,24.91
2022-08-20T18:45:36.461Z,24.17
2022-08-20T18:48:05.446Z,25.43
2022-08-20T18:50:46.387Z,24.26
2022-08-20T18:53:13.273Z,24.94
2022-08-20T18:55:43.767Z,28.36
2022-08-20T18:58:48.806Z,26.29
2022-08-20T19:01:16.186Z,25.21
2022-08-20T19:03:47.633Z,25.33
2022-08-20T19:06:33.259Z,25.67
2022-08-20T19:09:33.790Z,24.44
2022-08-20T19:12:06.486Z,25.85
2022-08-20T19:15:00.865Z,25.06
2022-08-20T19:17:54.025Z,24.60
2022-08-20T19:20:24.975Z,26.00
2022-08-20T19:22:54.086Z,25.61
2022-08-20T19:25:50.697Z,25.63
2022-08-20T19:28:45.215Z,25.11
2022-08-20T19:31:16.053Z,25.57
2022-08-20T19:33:47.191Z,24.91
2022-08-20T19:36:21.082Z,25.89
2022-08-20T19:38:52.922Z,26.06
2022-08-20T19:41:31.440Z,25.93
2022-08-20T19:44:00.330Z,25.29
2022-08-20T19:46:38.356Z,25.24
2022-08-20T19:49:27.730Z,25.74
2022-08-20T19:52:20.905Z,27.01
2022-08-20T19:54:53.708Z,25.61
2022-08-20T19:57:23.094Z,25.91
2022-08-20T19:59:57.486Z,24.95
2022-08-20T20:02:28.320Z,25.12
2022-08-20T20:04:57.832Z,26.84
2022-08-20T20:07:34.466Z,27.26
2022-08-20T20:10:03.474Z,25.87
2022-08-20T20:12:33.159Z,25.76
2022-08-20T20:15:00.690Z,26.69
2022-08-20T20:17:32.966Z,25.58
2022-08-20T20:20:14.646Z,26.47
2022-08-20T20:22:56.852Z,26.06
2022-08-20T20:25:38.597Z,26.74
2022-08-20T20:28:13.507Z,25.85
2022-08-20T20:30:41.268Z,28.45
2022-08-20T20:33:16.647Z,28.32
2022-08-20T20:35:44.344Z,28.34
2022-08-20T20:38:24.118Z,27.01
2022-08-20T20:40:54.850Z,28.57
2022-08-20T20:43:35.499Z,27.81
2022-08-20T20:46:29.007Z,28.07
2022-08-20T20:49:22.207Z,27.25
2022-08-20T20:51:56.688Z,27.00
2022-08-20T20:54:42.259Z,26.28
2022-08-20T20:57:38.082Z,28.70
2022-08-20T21:00:11.729Z,29.42
2022-08-20T21:02:38.728Z,27.13
2022-08-20T21:05:06.507Z,25.13
2022-08-20T21:07:33.369Z,28.39
2022-08-20T21:10:00.203Z,27.29
2022-08-20T21:12:26.943Z,27.05
2022-08-20T21:14:54.388Z,28.37
2022-08-20T21:17:23.067Z,26.47
2022-08-20T21:19:51.244Z,27.53
2022-08-20T21:22:19.485Z,25.83
2022-08-20T21:24:48.589Z,27.34
2022-08-20T21:27:15.973Z,25.93
2022-08-20T21:29:42.790Z,27.03
2022-08-20T21:32:12.356Z,25.80
2022-08-20T21:34:40.258Z,25.29
2022-08-20T21:37:07.181Z,24.58
2022-08-20T21:39:34.115Z,26.42
2022-08-20T21:42:03.764Z,26.18
2022-08-20T21:44:32.294Z,27.17
2022-08-20T21:47:00.200Z,29.52
2022-08-20T21:49:29.138Z,26.67
2022-08-20T21:51:56.331Z,27.44
2022-08-20T21:54:24.374Z,26.83
2022-08-20T21:56:56.702Z,27.30
2022-08-20T21:59:25.279Z,26.33
2022-08-20T22:01:52.828Z,28.08
2022-08-20T22:04:19.754Z,28.82
2022-08-20T22:06:47.306Z,29.15
2022-08-20T22:09:15.084Z,26.04
2022-08-20T22:11:42.025Z,25.99
2022-08-20T22:14:10.794Z,27.25
2022-08-20T22:16:37.627Z,27.19
2022-08-20T22:19:13.989Z,27.37
2022-08-20T22:21:42.843Z,25.94
2022-08-20T22:24:11.581Z,26.30
2022-08-20T22:26:41.359Z,26.14
2022-08-20T22:29:10.804Z,27.55
2022-08-20T22:31:40.895Z,28.57
2022-08-20T22:34:10.868Z,30.81
2022-08-20T22:36:37.794Z,29.37
2022-08-20T22:39:05.734Z,31.53
2022-08-20T22:41:32.954Z,28.75
2022-08-20T22:43:59.795Z,30.09
2022-08-20T22:46:30.722Z,26.38
2022-08-20T22:48:57.959Z,28.25
2022-08-20T22:51:30.166Z,26.42
2022-08-20T22:53:58.433Z,25.57
2022-08-20T22:56:26.303Z,26.94
2022-08-20T22:58:53.243Z,27.30
2022-08-20T23:01:21.144Z,27.85
2022-08-20T23:03:48.037Z,28.19
2022-08-20T23:06:14.883Z,27.03
2022-08-20T23:08:42.435Z,27.58
2022-08-20T23:11:09.443Z,27.43
2022-08-20T23:13:37.469Z,27.32
2022-08-20T23:16:06.871Z,28.21
2022-08-20T23:18:33.803Z,26.96
2022-08-20T23:21:01.087Z,27.93
2022-08-20T23:23:28.001Z,28.53
2022-08-20T23:25:55.438Z,30.46
2022-08-20T23:28:25.433Z,30.30
2022-08-20T23:30:52.794Z,27.09
2022-08-20T23:33:19.795Z,32.19
2022-08-20T23:35:47.158Z,31.17
2022-08-20T23:38:14.573Z,29.88
2022-08-20T23:40:43.152Z,28.83
2022-08-20T23:43:10.204Z,28.87
2022-08-20T23:45:39.732Z,30.67
2022-08-20T23:48:07.884Z,28.31
2022-08-20T23:50:35.280Z,30.16
2022-08-20T23:53:02.349Z,26.69
2022-08-20T23:55:29.352Z,28.58
2022-08-20T23:57:56.596Z,29.27
